createdAt,value
2023-11-01T00:01:34.186Z,2.10
2023-11-01T00:04:37.515Z,1.77
2023-11-01T00:07:40.611Z,2.40
2023-11-01T00:10:43.970Z,2.00
2023-11-01T00:13:46.857Z,2.22
2023-11-01T00:16:49.958Z,1.62
2023-11-01T00:19:52.886Z,1.77
2023-11-01T00:22:55.925Z,2.10
2023-11-01T00:25:58.811Z,2.20
2023-11-01T00:29:02.182Z,2.08
2023-11-01T00:32:05.289Z,1.83
2023-11-01T00:35:09.192Z,2.20
2023-11-01T00:38:12.476Z,1.98
2023-11-01T00:41:15.829Z,1.97
2023-11-01T00:44:18.625Z,1.58
2023-11-01T00:47:21.875Z,1.83
2023-11-01T00:50:24.822Z,1.50
2023-11-01T00:53:28.100Z,1.55
2023-11-01T00:56:30.874Z,1.80
2023-11-01T00:59:34.050Z,2.42
2023-11-01T01:02:37.171Z,1.95
2023-11-01T01:05:40.284Z,1.70
2023-11-01T01:08:43.247Z,1.83
2023-11-01T01:11:46.663Z,2.20
2023-11-01T01:14:49.667Z,3.42
2023-11-01T01:17:54.479Z,5.47
2023-11-01T01:20:57.226Z,3.20
2023-11-01T01:24:00.746Z,2.00
2023-11-01T01:27:03.891Z,2.00
2023-11-01T01:30:07.898Z,2.10
2023-11-01T01:33:10.616Z,1.90
2023-11-01T01:36:14.028Z,2.00
2023-11-01T01:39:16.910Z,3.17
2023-11-01T01:42:20.073Z,2.97
2023-11-01T01:45:23.015Z,2.72
2023-11-01T01:48:26.630Z,2.20
2023-11-01T01:51:30.062Z,2.33
2023-11-01T01:54:33.469Z,2.40
2023-11-01T01:57:36.300Z,2.13
2023-11-01T02:00:40.082Z,2.45
2023-11-01T02:03:43.479Z,2.55
2023-11-01T02:06:46.568Z,2.30
2023-11-01T02:09:49.925Z,2.60
2023-11-01T02:12:53.353Z,2.03
2023-11-01T02:15:58.199Z,2.42
2023-11-01T02:19:01.103Z,2.55
2023-11-01T02:22:04.633Z,2.67
2023-11-01T02:25:08.120Z,2.53
2023-11-01T02:28:13.117Z,2.77
2023-11-01T02:31:15.875Z,2.70
2023-11-01T02:34:19.201Z,2.80
2023-11-01T02:37:22.707Z,2.60
2023-11-01T02:40:25.900Z,3.08
2023-11-01T02:43:28.821Z,2.43
2023-11-01T02:46:31.804Z,2.47
2023-11-01T02:49:34.783Z,3.30
2023-11-01T02:52:40.091Z,3.12
2023-11-01T02:55:43.191Z,3.25
2023-11-01T02:58:46.208Z,2.77
2023-11-01T03:01:50.884Z,2.90
2023-11-01T03:04:54.361Z,2.90
2023-11-01T03:07:57.863Z,2.83
2023-11-01T03:11:01.248Z,2.87
2023-11-01T03:14:04.042Z,3.20
2023-11-01T03:17:11.349Z,3.30
2023-11-01T03:20:14.281Z,2.72
2023-11-01T03:23:17.537Z,3.30
2023-11-01T03:26:20.556Z,2.72
2023-11-01T03:29:23.771Z,2.50
2023-11-01T03:32:26.834Z,2.70
2023-11-01T03:35:30.228Z,2.20
2023-11-01T03:38:34.104Z,2.42
2023-11-01T03:41:43.988Z,2.25
2023-11-01T03:44:46.767Z,2.50
2023-11-01T03:47:50.473Z,1.87
2023-11-01T03:50:53.917Z,2.05
2023-11-01T03:53:56.939Z,2.28
2023-11-01T03:56:59.676Z,2.37
2023-11-01T04:00:03.157Z,2.40
2023-11-01T04:03:07.651Z,2.22
2023-11-01T04:06:10.976Z,2.45
2023-11-01T04:09:14.004Z,2.37
2023-11-01T04:12:17.166Z,1.80
2023-11-01T04:15:19.956Z,2.20
2023-11-01T04:18:23.303Z,2.22
2023-11-01T04:21:26.175Z,2.15
2023-11-01T04:24:30.044Z,2.20
2023-11-01T04:27:43.046Z,2.75
2023-11-01T04:30:46.415Z,2.73
2023-11-01T04:33:50.274Z,2.17
2023-11-01T04:36:53.409Z,2.33
2023-11-01T04:39:56.228Z,3.33
2023-11-01T04:42:59.607Z,2.78
2023-11-01T04:46:02.484Z,2.70
2023-11-01T04:49:05.874Z,2.90
2023-11-01T04:52:09.293Z,2.97
2023-11-01T04:55:12.786Z,3.45
2023-11-01T04:58:15.760Z,5.18
2023-11-01T05:01:19.100Z,4.50
2023-11-01T05:04:21.838Z,3.10
2023-11-01T05:07:24.868Z,3.60
2023-11-01T05:10:28.140Z,2.28
2023-11-01T05:13:31.233Z,2.20
2023-11-01T05:16:34.571Z,2.80
2023-11-01T05:19:37.638Z,2.17
2023-11-01T05:22:40.605Z,2.00
2023-11-01T05:25:43.902Z,2.05
2023-11-01T05:28:47.129Z,2.15
2023-11-01T05:31:50.684Z,2.10
2023-11-01T05:34:54.288Z,2.33
2023-11-01T05:37:57.607Z,1.77
2023-11-01T05:41:01.229Z,2.05
2023-11-01T05:44:04.982Z,3.92
2023-11-01T05:47:07.803Z,15.13
2023-11-01T05:50:13.770Z,27.80
2023-11-01T05:53:17.332Z,20.02
2023-11-01T05:56:21.682Z,11.77
2023-11-01T05:59:24.563Z,5.35
2023-11-01T06:02:29.235Z,4.23
2023-11-01T06:05:32.574Z,6.55
2023-11-01T06:08:35.769Z,8.27
2023-11-01T06:11:39.409Z,7.22
2023-11-01T06:14:42.442Z,35.42
2023-11-01T06:17:45.770Z,27.47
2023-11-01T06:20:48.908Z,8.95
2023-11-01T06:23:52.069Z,13.45
2023-11-01T06:26:55.063Z,11.20
2023-11-01T06:29:58.938Z,8.10
2023-11-01T06:33:03.252Z,6.00
2023-11-01T06:36:08.321Z,5.68
2023-11-01T06:39:11.143Z,2.55
2023-11-01T06:42:14.821Z,2.17
2023-11-01T06:45:17.614Z,2.03
2023-11-01T06:48:20.896Z,1.40
2023-11-01T06:51:23.586Z,1.90
2023-11-01T06:54:27.001Z,1.80
2023-11-01T06:57:29.707Z,1.75
2023-11-01T07:00:35.450Z,2.20
2023-11-01T07:03:38.528Z,1.80
2023-11-01T07:06:45.706Z,2.03
2023-11-01T07:09:48.387Z,1.70
2023-11-01T07:12:51.771Z,1.92
2023-11-01T07:15:54.639Z,1.48
2023-11-01T07:18:59.389Z,1.90
2023-11-01T07:22:02.199Z,1.45
2023-11-01T07:25:05.725Z,1.48
2023-11-01T07:28:08.587Z,1.25
2023-11-01T07:31:11.705Z,1.60
2023-11-01T07:34:14.688Z,1.43
2023-11-01T07:37:17.814Z,1.60
2023-11-01T07:40:20.526Z,1.65
2023-11-01T07:43:24.021Z,1.75
2023-11-01T07:46:26.821Z,1.15
2023-11-01T07:49:29.818Z,1.47
2023-11-01T07:52:32.603Z,1.37
2023-11-01T07:55:36.074Z,1.17
2023-11-01T07:58:38.913Z,1.15
2023-11-01T08:01:42.489Z,1.25
2023-11-01T08:04:46.127Z,1.30
2023-11-01T08:07:49.108Z,1.30
2023-11-01T08:10:52.385Z,1.15
2023-11-01T08:13:55.134Z,1.25
2023-11-01T08:16:58.310Z,1.30
2023-11-01T08:20:02.550Z,1.30
2023-11-01T08:23:05.912Z,1.30
2023-11-01T08:26:08.764Z,1.35
2023-11-01T08:29:11.900Z,0.95
2023-11-01T08:32:15.069Z,0.90
2023-11-01T08:35:18.608Z,1.00
2023-11-01T08:38:21.525Z,0.93
2023-11-01T08:41:24.842Z,1.10
2023-11-01T08:44:27.836Z,0.90
2023-11-01T08:47:39.813Z,1.48
2023-11-01T08:50:42.837Z,0.60
2023-11-01T08:53:45.940Z,0.80
2023-11-01T08:56:49.083Z,1.12
2023-11-01T08:59:53.014Z,0.90
2023-11-01T09:02:56.156Z,1.00
2023-11-01T09:05:59.410Z,0.80
2023-11-01T09:09:02.242Z,0.70
2023-11-01T09:12:05.703Z,0.70
2023-11-01T09:15:14.681Z,0.90
2023-11-01T09:18:17.941Z,1.00
2023-11-01T09:21:21.238Z,0.90
2023-11-01T09:24:26.601Z,0.65
2023-11-01T09:27:29.534Z,0.68
2023-11-01T09:30:32.905Z,0.82
2023-11-01T09:33:36.891Z,0.80
2023-11-01T09:36:42.029Z,0.60
2023-11-01T09:39:44.797Z,0.40
2023-11-01T09:42:50.952Z,0.70
2023-11-01T09:45:53.984Z,0.68
2023-11-01T09:48:58.260Z,0.60
2023-11-01T09:52:04.614Z,0.60
2023-11-01T09:55:08.892Z,0.55
2023-11-01T09:58:13.674Z,0.80
2023-11-01T10:01:18.257Z,0.55
2023-11-01T10:04:21.873Z,0.90
2023-11-01T10:07:25.206Z,0.70
2023-11-01T10:10:28.583Z,0.70
2023-11-01T10:13:32.433Z,0.60
2023-11-01T10:16:43.051Z,0.62
2023-11-01T10:19:46.440Z,0.70
2023-11-01T10:22:49.890Z,0.50
2023-11-01T10:25:52.932Z,0.50
2023-11-01T10:28:58.151Z,0.70
2023-11-01T10:32:01.212Z,0.60
2023-11-01T10:35:12.508Z,0.60
2023-11-01T10:38:15.376Z,0.70
2023-11-01T10:41:19.725Z,0.80
2023-11-01T10:44:27.606Z,0.70
2023-11-01T10:47:31.537Z,1.02
2023-11-01T10:50:35.776Z,1.02
2023-11-01T10:53:40.233Z,0.80
2023-11-01T10:56:43.784Z,0.95
2023-11-01T11:00:00.009Z,1.40
2023-11-01T11:03:43.248Z,0.70
2023-11-01T11:06:58.476Z,1.70
2023-11-01T11:10:34.113Z,0.83
2023-11-01T11:13:37.662Z,0.70
2023-11-01T11:17:09.257Z,0.80
2023-11-01T11:20:18.233Z,0.60
2023-11-01T11:23:32.789Z,1.00
2023-11-01T11:26:40.128Z,0.70
2023-11-01T11:29:46.992Z,0.68
2023-11-01T11:33:07.486Z,0.75
2023-11-01T11:36:11.195Z,0.70
2023-11-01T11:39:15.066Z,0.80
2023-11-01T11:42:42.784Z,0.60
2023-11-01T11:45:47.292Z,0.80
2023-11-01T11:48:52.689Z,0.88
2023-11-01T11:52:04.459Z,0.68
2023-11-01T11:55:08.033Z,0.47
2023-11-01T11:58:12.070Z,0.60
2023-11-01T12:01:28.491Z,0.50
2023-11-01T12:04:37.529Z,0.90
2023-11-01T12:07:44.876Z,0.60
2023-11-01T12:10:51.379Z,0.70
2023-11-01T12:13:54.532Z,0.80
2023-11-01T12:17:03.558Z,0.65
2023-11-01T12:20:11.468Z,0.60
2023-11-01T12:23:15.082Z,0.50
2023-11-01T12:26:17.946Z,0.50
2023-11-01T12:29:21.351Z,0.60
2023-11-01T12:32:25.206Z,0.60
2023-11-01T12:35:28.595Z,0.68
2023-11-01T12:38:35.134Z,0.43
2023-11-01T12:41:38.638Z,0.40
2023-11-01T12:44:41.451Z,0.50
2023-11-01T12:47:48.370Z,0.60
2023-11-01T12:50:51.363Z,0.55
2023-11-01T12:53:59.983Z,0.40
2023-11-01T12:57:03.628Z,0.52
2023-11-01T13:00:09.756Z,0.57
2023-11-01T13:03:14.237Z,0.40
2023-11-01T13:06:17.790Z,0.70
2023-11-01T13:09:20.794Z,0.60
2023-11-01T13:12:25.155Z,0.60
2023-11-01T13:15:28.162Z,0.57
2023-11-01T13:18:31.605Z,1.60
2023-11-01T13:21:34.996Z,0.70
2023-11-01T13:24:38.264Z,0.50
2023-11-01T13:27:41.480Z,0.43
2023-11-01T13:30:44.757Z,0.50
2023-11-01T13:33:49.419Z,0.60
2023-11-01T13:36:55.614Z,0.70
2023-11-01T13:39:59.665Z,0.70
2023-11-01T13:43:02.779Z,0.90
2023-11-01T13:46:06.384Z,0.80
2023-11-01T13:49:10.807Z,0.45
2023-11-01T13:52:14.767Z,0.40
2023-11-01T13:55:18.073Z,0.40
2023-11-01T13:58:21.902Z,0.70
2023-11-01T14:01:25.173Z,0.40
2023-11-01T14:04:29.292Z,0.40
2023-11-01T14:07:34.829Z,0.70
2023-11-01T14:10:38.814Z,0.50
2023-11-01T14:13:44.988Z,0.40
2023-11-01T14:16:49.160Z,0.20
2023-11-01T14:19:56.242Z,0.47
2023-11-01T14:22:59.727Z,0.50
2023-11-01T14:26:02.556Z,2.22
2023-11-01T14:29:06.190Z,0.70
2023-11-01T14:32:08.997Z,0.70
2023-11-01T14:35:12.983Z,0.70
2023-11-01T14:38:15.892Z,1.60
2023-11-01T14:41:19.401Z,2.03
2023-11-01T14:44:22.689Z,0.90
2023-11-01T14:47:26.255Z,0.30
2023-11-01T14:50:29.443Z,0.50
2023-11-01T14:53:32.757Z,0.40
2023-11-01T14:56:35.645Z,0.40
2023-11-01T14:59:38.897Z,0.50
2023-11-01T15:02:42.650Z,1.10
2023-11-01T15:05:46.099Z,0.75
2023-11-01T15:08:48.974Z,0.70
2023-11-01T15:11:52.435Z,0.60
2023-11-01T15:14:55.808Z,0.60
2023-11-01T15:17:59.007Z,0.60
2023-11-01T15:21:04.004Z,0.90
2023-11-01T15:24:08.252Z,0.75
2023-11-01T15:27:11.528Z,0.60
2023-11-01T15:30:17.266Z,0.47
2023-11-01T15:33:20.760Z,0.50
2023-11-01T15:36:25.041Z,0.40
2023-11-01T15:39:28.691Z,0.70
2023-11-01T15:42:31.843Z,1.05
2023-11-01T15:45:35.423Z,1.30
2023-11-01T15:48:39.560Z,3.53
2023-11-01T15:51:43.542Z,6.35
2023-11-01T15:54:46.922Z,7.47
2023-11-01T15:57:50.830Z,6.93
2023-11-01T16:00:54.126Z,6.72
2023-11-01T16:03:59.250Z,8.43
2023-11-01T16:07:03.036Z,10.85
2023-11-01T16:10:08.173Z,11.35
2023-11-01T16:13:11.704Z,9.05
2023-11-01T16:16:15.483Z,8.15
2023-11-01T16:19:20.138Z,4.70
2023-11-01T16:22:26.615Z,6.45
2023-11-01T16:25:32.245Z,7.25
2023-11-01T16:28:36.696Z,3.87
2023-11-01T16:31:39.523Z,3.28
2023-11-01T16:34:46.765Z,2.63
2023-11-01T16:37:50.519Z,2.50
2023-11-01T16:40:54.810Z,2.50
2023-11-01T16:43:58.029Z,2.40
2023-11-01T16:47:02.438Z,1.90
2023-11-01T16:50:06.777Z,2.60
2023-11-01T16:53:10.922Z,2.80
2023-11-01T16:56:15.130Z,2.00
2023-11-01T16:59:19.573Z,1.70
2023-11-01T17:02:29.395Z,2.00
2023-11-01T17:05:34.176Z,1.60
2023-11-01T17:08:38.233Z,1.58
2023-11-01T17:11:42.963Z,3.05
2023-11-01T17:14:47.658Z,3.30
2023-11-01T17:17:53.769Z,2.47
2023-11-01T17:20:58.364Z,0.80
2023-11-01T17:24:03.410Z,1.12
2023-11-01T17:27:09.267Z,1.10
2023-11-01T17:30:14.001Z,1.20
2023-11-01T17:33:17.867Z,1.30
2023-11-01T17:36:25.418Z,3.23
2023-11-01T17:39:39.861Z,2.10
2023-11-01T17:42:43.362Z,1.42
2023-11-01T17:45:48.957Z,1.55
2023-11-01T17:48:53.810Z,1.87
2023-11-01T17:51:57.559Z,2.10
2023-11-01T17:55:01.632Z,2.00
2023-11-01T17:58:05.015Z,0.90
2023-11-01T18:01:08.066Z,1.30
2023-11-01T18:04:11.604Z,1.50
2023-11-01T18:07:16.773Z,0.83
2023-11-01T18:10:19.880Z,2.08
2023-11-01T18:13:29.469Z,1.12
2023-11-01T18:16:38.000Z,1.65
2023-11-01T18:19:41.934Z,2.00
2023-11-01T18:22:44.891Z,2.47
2023-11-01T18:26:10.922Z,1.02
2023-11-01T18:29:17.026Z,1.70
2023-11-01T18:32:19.736Z,1.90
2023-11-01T18:35:30.991Z,1.50
2023-11-01T18:38:46.664Z,1.00
2023-11-01T18:41:51.374Z,1.30
2023-11-01T18:44:55.314Z,1.15
2023-11-01T18:47:58.488Z,1.62
2023-11-01T18:51:08.492Z,0.90
2023-11-01T18:54:11.812Z,0.90
2023-11-01T18:57:29.978Z,1.40
2023-11-01T19:00:36.503Z,1.25
2023-11-01T19:03:39.402Z,1.10
2023-11-01T19:06:42.910Z,1.23
2023-11-01T19:09:45.757Z,1.13
2023-11-01T19:12:49.969Z,1.10
2023-11-01T19:16:07.918Z,0.90
2023-11-01T19:19:11.304Z,0.82
2023-11-01T19:22:15.029Z,0.90
2023-11-01T19:25:18.324Z,0.60
2023-11-01T19:28:21.264Z,0.77
2023-11-01T19:31:24.857Z,0.75
2023-11-01T19:34:27.750Z,0.70
2023-11-01T19:37:31.230Z,0.70
2023-11-01T19:40:33.885Z,1.00
2023-11-01T19:43:37.048Z,0.40
2023-11-01T19:46:40.969Z,0.62
2023-11-01T19:49:44.335Z,0.68
2023-11-01T19:52:46.991Z,0.73
2023-11-01T19:55:50.472Z,1.00
2023-11-01T19:58:54.587Z,0.68
2023-11-01T20:01:57.661Z,0.90
2023-11-01T20:05:00.802Z,0.73
2023-11-01T20:08:03.513Z,1.05
2023-11-01T20:11:07.765Z,0.87
2023-11-01T20:14:13.747Z,0.73
2023-11-01T20:17:17.189Z,1.10
2023-11-01T20:20:20.779Z,1.10
2023-11-01T20:23:23.770Z,0.88
2023-11-01T20:26:26.421Z,1.10
2023-11-01T20:29:29.415Z,1.00
2023-11-01T20:32:32.064Z,1.08
2023-11-01T20:35:35.892Z,1.12
2023-11-01T20:38:39.913Z,1.10
2023-11-01T20:41:43.432Z,0.90
2023-11-01T20:44:46.297Z,0.80
2023-11-01T20:47:51.133Z,1.10
2023-11-01T20:50:53.886Z,1.65
2023-11-01T20:54:00.269Z,0.77
2023-11-01T20:57:04.489Z,0.90
2023-11-01T21:00:11.861Z,1.30
2023-11-01T21:03:14.946Z,1.10
2023-11-01T21:06:22.124Z,1.23
2023-11-01T21:09:26.891Z,1.05
2023-11-01T21:12:30.357Z,1.30
2023-11-01T21:15:33.659Z,0.80
2023-11-01T21:18:37.248Z,1.37
2023-11-01T21:21:41.086Z,1.33
2023-11-01T21:24:46.102Z,1.25
2023-11-01T21:27:49.079Z,1.00
2023-11-01T21:30:52.157Z,1.02
2023-11-01T21:33:55.351Z,1.10
2023-11-01T21:36:58.598Z,1.15
2023-11-01T21:40:02.136Z,1.12
2023-11-01T21:43:05.442Z,1.23
2023-11-01T21:46:08.110Z,1.35
2023-11-01T21:49:19.344Z,1.42
2023-11-01T21:52:23.786Z,0.80
2023-11-01T21:55:56.116Z,0.90
2023-11-01T21:59:09.406Z,1.30
2023-11-01T22:02:40.992Z,0.93
2023-11-01T22:05:44.331Z,0.93
2023-11-01T22:09:00.018Z,1.10
2023-11-01T22:12:04.121Z,1.27
2023-11-01T22:15:07.530Z,1.00
2023-11-01T22:18:20.542Z,0.80
2023-11-01T22:21:23.843Z,1.60
2023-11-01T22:24:31.186Z,1.42
2023-11-01T22:27:45.116Z,1.58
2023-11-01T22:30:49.059Z,1.30
2023-11-01T22:33:55.465Z,0.98
2023-11-01T22:36:58.720Z,1.60
2023-11-01T22:40:01.589Z,1.52
2023-11-01T22:43:05.538Z,1.15
2023-11-01T22:46:08.244Z,1.50
2023-11-01T22:49:11.509Z,1.20
2023-11-01T22:52:14.395Z,1.20
2023-11-01T22:55:17.520Z,1.60
2023-11-01T22:58:20.356Z,1.80
2023-11-01T23:01:24.531Z,1.30
2023-11-01T23:04:27.516Z,1.40
2023-11-01T23:07:32.359Z,1.17
2023-11-01T23:10:36.532Z,1.33
2023-11-01T23:13:40.778Z,1.50
2023-11-01T23:16:43.830Z,1.60
2023-11-01T23:19:48.411Z,1.35
2023-11-01T23:22:55.149Z,1.55
2023-11-01T23:25:58.549Z,1.30
2023-11-01T23:29:06.868Z,1.50
2023-11-01T23:32:21.796Z,1.40
2023-11-01T23:35:24.547Z,1.20
2023-11-01T23:38:30.174Z,1.58
2023-11-01T23:41:48.568Z,1.42
2023-11-01T23:44:54.116Z,1.42
2023-11-01T23:48:02.888Z,1.53
2023-11-01T23:51:08.906Z,1.80
2023-11-01T23:54:21.001Z,1.58
2023-11-01T23:57:27.644Z,1.75
